Kensett, IA

7:11 PM CST on February 09, 2016 (GMT -0600)
MesoWest | | Change Station
CLOSE
Current Station
Personal Weather Station
Location: Kensett, IA
Elevation: 1227 ft
Nearby Weather Stations

Elev 1227 ft 43.35 °N, 93.21 °W | Updated 3 hours ago

Clear
Clear
9.0 °F
Feels Like 9.0 °F
N
0.0
Wind Variable Wind from North
Gusts 0.0 mph

Today
High -- | Low -- °F
--% Chance of Precip.
Yesterday
High -- | Low -- °F
Precip. -- in
Pressure 30.19 in
Visibility 10.0 miles
Clouds Clear
Dew Point Not available.
Humidity Not available.
Rainfall in
Snow Depth Not available.
7:19 AM 5:34 PM
Waxing Crescent, 3% visible
METAR KMCW 100053Z AUTO 32016KT 10SM CLR M12/M17 A3013 RMK AO2 PK WND 32026/0034 SLP224 T11171172 $
Pressure 30.19 in
Visibility 10.0 miles
Clouds Clear
Dew Point Not available.
Humidity Not available.
Rainfall in
Snow Depth Not available.
7:19 AM 5:34 PM
Waxing Crescent, 3% visible
METAR KMCW 100053Z AUTO 32016KT 10SM CLR M12/M17 A3013 RMK AO2 PK WND 32026/0034 SLP224 T11171172 $

10-Day Weather Forecast

Almanac

Astronomy

Feb. 09, 2016 Rise Set
Actual Time
Civil Twilight
Nautical Twilight
Astronomical Twilight
Moon
Length of Visible Light
Length of Day
Tomorrow will be .
, % of the Moon is Illuminated

Today's Extremes

State Highs State Lows

Community

WunderPhotos

Upload Photos

1,891,752 photos uploaded!

WunderBlog® & News

Nearby

Air Quality

  Air Quality AQ Index Pollutant
Not available.

Snow Depth

Station Depth Elevation

Earthquake Activity

City Distance Mag. Time & Date
Minimum magnitude displayed is 2.5.

Coastal Water Temperatures

Place Temperature

Stations

Nearby Weather Stations

Station Location Temp. Windchill Dew Point Humidity Wind Precip. Elev Updated Type
                   

Watches & Warnings

There are currently no watches in effect.